Time;durP1;ratioP1;P1;durP2;ratioP2;P2;SDS_P1;SDS_P2;PMS_P1;PMS_P2;Temp;Humidity;BMP_temperature;BMP_pressure;BME280_temperature;BME280_humidity;BME280_pressure;Samples;Min_cycle;Max_cycle;Signal;HPM_P1;HPM_P2
2022/02/16 00:00:45;;;;;;;45.88;34.55;;;;;;;5.26;59.68;100123.34;4979053;28;20032;-91
2022/02/16 00:03:10;;;;;;;47.53;37.17;;;;;;;5.48;60.17;100182.59;4979526;28;20023;-91
2022/02/16 00:05:37;;;;;;;49.73;37.03;;;;;;;5.45;59.75;100154.88;4981206;28;20026;-93
2022/02/16 00:08:03;;;;;;;43.40;32.30;;;;;;;4.90;59.73;100088.81;4979726;28;20019;-91
2022/02/16 00:10:29;;;;;;;35.17;27.70;;;;;;;5.32;59.97;100141.16;5002040;28;20105;-90
2022/02/16 00:12:55;;;;;;;35.03;27.95;;;;;;;5.34;60.24;100174.13;4991223;28;20478;-92
2022/02/16 00:15:20;;;;;;;32.83;25.10;;;;;;;4.72;60.06;100072.06;4986727;28;20523;-92
2022/02/16 00:20:31;;;;;;;31.03;24.37;;;;;;;5.22;60.33;100214.41;5134592;23;20042;-91
2022/02/16 00:23:04;;;;;;;34.10;25.37;;;;;;;2.51;59.77;99785.34;5014924;28;20030;-91
2022/02/16 00:25:30;;;;;;;30.17;25.37;;;;;;;5.16;60.15;100159.09;5007603;28;20196;-92
2022/02/16 00:27:56;;;;;;;30.03;24.20;;;;;;;5.20;59.92;100168.34;5002585;28;20022;-92
2022/02/16 00:30:22;;;;;;;30.77;25.00;;;;;;;4.08;59.93;100018.03;5004952;28;20025;-91
2022/02/16 00:32:49;;;;;;;35.73;26.30;;;;;;;4.11;60.10;100033.47;5004825;28;20017;-88
2022/02/16 00:40:44;;;;;;;33.17;25.83;;;;;;;4.96;60.06;100205.25;5172005;23;20038;-88
2022/02/16 00:45:51;;;;;;;35.65;27.63;;;;;;;3.86;60.09;100010.28;5400496;23;20030;-91
2022/02/16 00:48:16;;;;;;;38.30;27.70;;;;;;;4.99;60.10;100145.63;5020505;28;20022;-88
2022/02/16 00:50:42;;;;;;;37.33;26.83;;;;;;;4.11;60.10;99993.44;5113555;23;20046;-90
2022/02/16 00:53:08;;;;;;;33.20;26.30;;;;;;;4.38;59.88;100038.22;5004099;28;20030;-90
2022/02/16 00:55:33;;;;;;;34.07;25.97;;;;;;;4.94;59.66;100133.88;5087454;23;20026;-90
2022/02/16 00:57:59;;;;;;;35.47;27.00;;;;;;;4.11;59.67;100020.41;5063743;23;20053;-84
2022/02/16 01:00:25;;;;;;;34.50;25.77;;;;;;;3.07;59.91;99839.16;5018343;28;20019;-89
2022/02/16 01:02:50;;;;;;;35.70;28.33;;;;;;;3.46;59.64;99884.69;5000481;28;20045;-89
2022/02/16 01:05:26;;;;;;;;;;;;;;;;;;;;;
2022/02/16 01:07:51;;;;;;;37.53;28.60;;;;;;;3.66;59.55;99951.78;5019276;28;20061;-91
2022/02/16 01:15:59;;;;;;;34.83;28.30;;;;;;;3.68;59.63;99933.38;5644927;23;20049;-90
2022/02/16 07:19:28;;;;;;;30.27;19.87;;;;;;;2.24;61.04;99646.81;5569438;23;20053;-93
2022/02/16 07:24:39;;;;;;;32.10;21.50;;;;;;;3.71;60.64;99938.34;5336492;23;20057;-92
2022/02/16 07:29:56;;;;;;;31.20;20.40;;;;;;;3.35;60.90;99853.41;5501996;23;20065;-93
2022/02/16 07:32:22;;;;;;;36.10;20.87;;;;;;;4.02;60.82;99941.94;5102283;23;20042;-93
2022/02/16 07:34:47;;;;;;;31.43;21.90;;;;;;;3.04;61.43;99805.50;4997924;28;20086;-95
2022/02/16 07:37:13;;;;;;;35.00;26.30;;;;;;;3.80;60.90;99916.75;4997875;28;20038;-95
2022/02/16 07:42:21;;;;;;;50.50;32.30;;;;;;;2.31;61.47;99639.34;5201550;23;20034;-92
2022/02/16 07:47:32;;;;;;;55.53;35.83;;;;;;;2.11;61.58;99591.44;5394220;23;20025;-94
2022/02/16 07:52:43;;;;;;;64.23;38.43;;;;;;;3.33;61.54;99800.53;5130770;23;20054;-95
2022/02/16 07:55:09;;;;;;;66.80;42.03;;;;;;;2.70;61.77;99710.88;4997809;28;20068;-94
2022/02/16 07:57:34;;;;;;;72.83;46.17;;;;;;;3.68;61.96;99835.00;4990622;28;20034;-92
2022/02/16 08:00:00;;;;;;;66.53;41.80;;;;;;;5.28;61.73;100056.00;4978535;28;20140;-94
2022/02/16 08:02:26;;;;;;;78.10;46.90;;;;;;;5.14;61.96;100085.94;4966466;28;20488;-94
2022/02/16 08:04:51;;;;;;;62.97;40.30;;;;;;;2.51;61.55;99602.09;4959601;28;20037;-94
2022/02/16 08:07:17;;;;;;;79.13;49.67;;;;;;;3.70;62.35;99827.84;4971000;28;20050;-94
2022/02/16 08:09:42;;;;;;;67.77;42.50;;;;;;;5.17;62.40;100063.91;4969266;28;20019;-94
2022/02/16 08:12:08;;;;;;;62.43;36.17;;;;;;;4.47;62.19;99938.13;4960809;28;20039;-94
2022/02/16 08:14:33;;;;;;;76.43;45.67;;;;;;;5.38;62.57;100054.22;4974616;28;20117;-94
2022/02/16 08:17:00;;;;;;;69.43;38.63;;;;;;;5.51;62.54;100101.97;4964803;28;20420;-94
2022/02/16 08:19:26;;;;;;;54.10;33.53;;;;;;;5.56;62.86;100114.66;4961096;28;20023;-95
2022/02/16 08:21:55;;;;;;;61.70;34.57;;;;;;;5.71;62.83;100108.94;4962584;28;20031;-95
2022/02/16 08:24:21;;;;;;;59.57;34.07;;;;;;;4.61;63.04;99928.28;4961702;28;20031;-92
2022/02/16 08:26:47;;;;;;;56.70;35.57;;;;;;;4.73;63.11;99974.31;4962017;28;20419;-87
2022/02/16 08:29:14;;;;;;;61.78;34.22;;;;;;;5.51;62.96;100056.63;4983930;28;20037;-87
2022/02/16 08:31:41;;;;;;;60.50;35.38;;;;;;;4.92;62.99;99963.09;4999347;28;20034;-87
2022/02/16 08:34:08;;;;;;;64.30;38.83;;;;;;;4.90;62.98;99938.88;4987566;28;20023;-92
2022/02/16 08:36:33;;;;;;;51.50;31.67;;;;;;;4.88;63.06;99910.22;4977273;28;20089;-92
2022/02/16 08:38:58;;;;;;;52.77;32.53;;;;;;;5.38;63.02;99981.75;4968385;28;20439;-92
2022/02/16 08:41:24;;;;;;;57.90;35.80;;;;;;;5.30;62.81;99929.22;4976322;28;20530;-93
2022/02/16 08:43:50;;;;;;;64.20;37.45;;;;;;;5.72;63.09;99987.47;4963937;28;20030;-93
2022/02/16 08:46:15;;;;;;;50.23;32.03;;;;;;;6.26;62.93;100045.63;4975170;28;20026;-92
2022/02/16 08:48:41;;;;;;;52.47;33.40;;;;;;;5.96;62.94;100012.50;4975873;28;20072;-92
2022/02/16 08:51:07;;;;;;;49.23;31.23;;;;;;;6.08;62.94;100036.78;4966765;28;20049;-91
2022/02/16 08:53:32;;;;;;;43.70;28.83;;;;;;;6.00;62.98;100013.88;4972306;28;20100;-92
2022/02/16 08:55:59;;;;;;;43.03;30.57;;;;;;;6.43;63.55;100055.41;4961051;28;20495;-92
2022/02/16 08:58:25;;;;;;;47.00;30.65;;;;;;;6.48;63.28;100045.34;4959711;28;20023;-92
2022/02/16 09:00:51;;;;;;;85.03;37.25;;;;;;;6.03;63.16;99951.53;4958918;28;20034;-93
2022/02/16 09:03:18;;;;;;;56.92;36.72;;;;;;;6.41;63.16;100023.25;4963207;28;20039;-90
2022/02/16 09:05:44;;;;;;;57.85;37.53;;;;;;;6.48;62.75;100036.63;4958673;28;20444;-93
2022/02/16 09:08:09;;;;;;;57.45;36.28;;;;;;;6.00;62.99;99966.72;4964965;28;20027;-92
2022/02/16 09:10:35;;;;;;;55.75;34.70;;;;;;;6.29;62.96;100001.59;4961410;28;20039;-92
2022/02/16 09:13:00;;;;;;;54.88;32.10;;;;;;;6.68;63.25;100061.88;4976653;28;20102;-92
2022/02/16 09:15:27;;;;;;;48.83;32.60;;;;;;;5.39;63.49;99867.38;4975080;28;20030;-93
2022/02/16 09:17:54;;;;;;;45.20;29.58;;;;;;;5.56;62.67;99898.09;4966441;28;20117;-92
2022/02/16 09:20:20;;;;;;;44.92;29.88;;;;;;;6.61;63.59;100060.78;4962852;28;20096;-94
2022/02/16 09:22:46;;;;;;;46.80;31.37;;;;;;;6.00;63.64;99977.19;4956940;28;20034;-92
2022/02/16 09:25:11;;;;;;;65.63;44.83;;;;;;;6.36;63.06;100007.13;4972538;28;20026;-95
2022/02/16 09:27:37;;;;;;;59.58;38.45;;;;;;;6.52;63.58;100036.22;4976929;28;20037;-93
2022/02/16 09:30:04;;;;;;;45.30;30.20;;;;;;;6.28;63.53;100010.44;4963177;28;20556;-94
2022/02/16 09:32:29;;;;;;;47.60;28.73;;;;;;;5.65;63.35;99891.22;4971714;28;20526;-93
2022/02/16 09:34:55;;;;;;;45.45;30.23;;;;;;;5.29;63.31;99808.94;4972712;28;20038;-96
2022/02/16 09:37:21;;;;;;;55.17;33.88;;;;;;;6.18;63.45;99938.00;4964809;28;20030;-94
2022/02/16 09:39:47;;;;;;;46.90;30.75;;;;;;;5.96;63.36;99881.47;4965493;28;20057;-93
2022/02/16 09:42:13;;;;;;;49.88;35.10;;;;;;;6.35;63.10;99945.97;4961783;28;20037;-94
2022/02/16 09:45:00;;;;;;;49.30;33.08;;;;;;;7.08;63.08;100011.78;4978420;28;20089;-93
2022/02/16 09:47:27;;;;;;;51.83;34.10;;;;;;;7.15;62.76;100014.69;4971065;28;20031;-92
2022/02/16 09:49:53;;;;;;;48.35;33.72;;;;;;;6.64;62.67;99968.69;4957856;28;20027;-93
2022/02/16 09:52:21;;;;;;;51.55;33.70;;;;;;;6.72;62.90;99944.38;4957938;28;20061;-94
2022/02/16 09:54:48;;;;;;;42.97;30.30;;;;;;;6.33;62.35;99863.16;4955243;28;20575;-91
2022/02/16 09:57:14;;;;;;;46.20;30.00;;;;;;;7.30;62.45;99985.16;4981467;28;20053;-90
2022/02/16 09:59:40;;;;;;;37.60;26.45;;;;;;;6.73;62.51;99894.38;4965262;28;20046;-91
2022/02/16 10:02:11;;;;;;;43.95;30.77;;;;;;;7.24;62.25;99967.34;4961711;28;20100;-92
2022/02/16 10:04:37;;;;;;;36.78;25.90;;;;;;;7.32;62.11;99956.13;4962141;28;20036;-91
2022/02/16 10:07:38;;;;;;;456.77;93.97;;;;;;;7.62;61.76;99979.47;4970050;28;20030;-93
2022/02/16 10:10:24;;;;;;;37.92;28.15;;;;;;;7.59;62.06;99982.41;4970305;28;20030;-92
2022/02/16 10:12:51;;;;;;;37.15;25.27;;;;;;;7.61;61.84;99977.00;4967425;28;20034;-93
2022/02/16 10:15:22;;;;;;;38.70;26.77;;;;;;;7.71;62.12;99985.63;4988492;28;20139;-92
2022/02/16 10:17:48;;;;;;;36.90;26.13;;;;;;;7.54;61.83;99949.66;4965550;28;20072;-91
2022/02/16 10:20:18;;;;;;;38.53;24.35;;;;;;;7.40;61.50;99885.28;4977573;28;20026;-92
2022/02/16 10:22:45;;;;;;;34.38;24.05;;;;;;;8.02;61.77;99959.78;4975122;28;20027;-92
2022/02/16 10:25:29;;;;;;;30.10;21.55;;;;;;;7.47;61.24;99840.88;4974968;28;20038;-93
2022/02/16 10:28:21;;;;;;;36.40;22.77;;;;;;;8.16;61.78;99930.31;4956849;28;20039;-92
2022/02/16 10:31:03;;;;;;;32.72;22.58;;;;;;;8.24;61.54;99925.16;4967193;28;20526;-93
2022/02/16 10:33:35;;;;;;;;;;;;;;;8.24;61.62;99921.69;4958851;28;20496;-92
2022/02/16 10:36:02;;;;;;;28.90;19.38;;;;;;;8.41;61.07;99915.59;4956396;28;19965;-92
2022/02/16 10:38:29;;;;;;;25.17;18.92;;;;;;;8.58;60.94;99913.88;4964301;28;20491;-93
2022/02/16 10:41:04;;;;;;;42.15;23.50;;;;;;;8.67;60.93;99912.94;4975512;28;20045;-92
2022/02/16 10:43:38;;;;;;;28.17;19.85;;;;;;;8.72;60.91;99910.66;4968290;28;20113;-91
2022/02/16 10:46:37;;;;;;;33.55;19.83;;;;;;;8.82;60.75;99890.31;4956360;28;20035;-91
2022/02/16 10:49:16;;;;;;;29.58;20.80;;;;;;;9.01;60.22;99894.53;4914611;28;20050;-91
2022/02/16 10:51:46;;;;;;;25.92;18.90;;;;;;;9.16;60.33;99877.13;4955648;28;20055;-91
2022/02/16 10:54:17;;;;;;;111.60;30.55;;;;;;;8.56;60.10;99764.03;4955314;28;20031;-91
2022/02/16 10:56:45;;;;;;;33.28;19.33;;;;;;;9.50;59.56;99877.03;4956389;28;20031;-90
2022/02/16 10:59:11;;;;;;;29.00;18.27;;;;;;;9.01;59.40;99785.72;4955280;28;20030;-90
2022/02/16 11:01:38;;;;;;;27.73;19.45;;;;;;;8.41;59.54;99689.31;4972936;28;20038;-90
2022/02/16 11:04:07;;;;;;;31.90;20.45;;;;;;;9.64;59.18;99853.63;4955335;28;20042;-90
2022/02/16 11:06:38;;;;;;;18.77;15.98;;;;;;;9.22;59.84;99779.00;4956366;28;20027;-90
2022/02/16 11:09:05;;;;;;;23.45;17.17;;;;;;;9.17;59.46;99746.22;4964172;28;20061;-90
2022/02/16 11:11:32;;;;;;;23.58;16.50;;;;;;;9.67;59.72;99821.69;4975052;28;20125;-90
2022/02/16 11:13:59;;;;;;;22.42;16.20;;;;;;;8.99;59.25;99682.34;4956783;28;20027;-91
2022/02/16 11:16:25;;;;;;;19.77;15.40;;;;;;;9.45;59.06;99778.34;4955595;28;20026;-91
2022/02/16 11:18:54;;;;;;;21.33;16.38;;;;;;;10.04;59.09;99837.00;4964011;28;20629;-91
2022/02/16 11:21:22;;;;;;;21.27;16.05;;;;;;;9.10;59.04;99687.28;4956967;28;20031;-91
2022/02/16 11:23:48;;;;;;;26.08;16.92;;;;;;;10.03;58.96;99816.88;4957623;28;20129;-90
2022/02/16 11:26:35;;;;;;;25.50;17.33;;;;;;;10.22;59.04;99821.00;4990910;28;20038;-91
2022/02/16 11:29:28;;;;;;;21.90;16.88;;;;;;;9.98;59.02;99783.09;4991157;28;20034;-91
2022/02/16 11:32:13;;;;;;;;;;;;;;;10.22;60.01;99821.00;4974665;28;20514;-91
2022/02/16 11:34:42;;;;;;;21.15;16.30;;;;;;;10.26;59.08;99809.09;4974518;28;19910;-92
2022/02/16 11:37:08;;;;;;;19.60;15.75;;;;;;;9.73;58.65;99726.13;4974229;28;20508;-91
2022/02/16 11:39:45;;;;;;;19.90;14.95;;;;;;;10.53;58.83;99805.25;4965823;28;20077;-91
2022/02/16 11:42:17;;;;;;;18.95;14.32;;;;;;;10.05;59.47;99728.66;4991485;28;20042;-90
2022/02/16 11:44:52;;;;;;;24.67;14.88;;;;;;;10.72;59.28;99789.81;4976287;28;20131;-90
2022/02/16 11:47:35;;;;;;;19.40;15.07;;;;;;;10.79;59.40;99788.13;4978193;28;20038;-91
2022/02/16 11:50:08;;;;;;;18.42;14.50;;;;;;;10.01;58.87;99650.88;4977847;28;20038;-91
2022/02/16 11:52:37;;;;;;;20.10;15.40;;;;;;;10.66;58.81;99761.44;4964530;28;20459;-89
2022/02/16 11:55:03;;;;;;;20.60;17.17;;;;;;;10.56;59.27;99729.16;4958006;28;20415;-89
2022/02/16 11:57:38;;;;;;;18.52;16.10;;;;;;;10.75;59.95;99770.97;4989534;28;20034;-90
2022/02/16 12:00:08;;;;;;;21.88;18.73;;;;;;;10.67;59.92;99765.75;4977820;28;20034;-91
2022/02/16 12:02:55;;;;;;;21.30;17.75;;;;;;;10.65;60.25;99785.38;4977786;28;20035;-93
2022/02/16 12:05:40;;;;;;;20.05;17.10;;;;;;;10.65;60.37;99764.25;4984832;28;20030;-90
2022/02/16 12:08:36;;;;;;;18.33;15.20;;;;;;;10.34;59.71;99714.06;4977862;28;20027;-91
2022/02/16 12:11:25;;;;;;;21.88;18.23;;;;;;;10.58;61.34;99764.13;4980673;28;20467;-91
2022/02/16 12:14:04;;;;;;;20.88;18.42;;;;;;;10.43;60.14;99750.84;4958155;28;20424;-90
2022/02/16 12:16:42;;;;;;;21.60;17.50;;;;;;;10.37;60.29;99729.56;4983583;28;20415;-91
2022/02/16 12:19:10;;;;;;;23.17;17.65;;;;;;;10.53;60.28;99732.16;4977108;28;20046;-91
2022/02/16 12:21:41;;;;;;;20.67;17.20;;;;;;;9.82;60.49;99624.91;4976926;28;20558;-91
2022/02/16 12:24:09;;;;;;;19.25;16.52;;;;;;;10.56;60.78;99733.63;4958450;28;20031;-91
2022/02/16 12:26:38;;;;;;;27.73;17.58;;;;;;;10.55;60.87;99729.34;4961654;28;20040;-91
2022/02/16 12:29:08;;;;;;;21.75;16.52;;;;;;;10.19;60.92;99661.16;4966098;28;20034;-92
2022/02/16 12:31:38;;;;;;;19.00;14.40;;;;;;;10.56;60.93;99718.59;4966709;28;20031;-91
2022/02/16 12:34:09;;;;;;;19.95;15.57;;;;;;;10.07;61.08;99652.81;4964037;28;20464;-94
2022/02/16 12:36:38;;;;;;;21.73;15.95;;;;;;;10.41;60.54;99700.03;4976240;28;20038;-92
2022/02/16 12:39:07;;;;;;;18.50;13.68;;;;;;;9.88;60.33;99603.94;4976747;28;20026;-92
2022/02/16 12:41:34;;;;;;;22.90;16.83;;;;;;;10.65;61.33;99700.91;4977574;28;20117;-92
2022/02/16 12:44:03;;;;;;;21.67;18.33;;;;;;;10.26;60.90;99635.75;4978361;28;20053;-91
2022/02/16 12:46:32;;;;;;;24.02;19.65;;;;;;;10.01;60.79;99608.66;4970911;28;20383;-91
2022/02/16 12:48:58;;;;;;;23.67;20.27;;;;;;;10.51;60.67;99668.13;4968381;28;20031;-94
2022/02/16 12:51:32;;;;;;;20.77;16.83;;;;;;;10.72;60.78;99693.91;4965292;28;20077;-92
2022/02/16 12:54:10;;;;;;;22.40;17.45;;;;;;;10.75;61.54;99727.91;4966763;28;20100;-91
2022/02/16 12:56:39;;;;;;;39.63;19.15;;;;;;;10.73;61.52;99703.47;4962027;28;20030;-90
2022/02/16 12:59:12;;;;;;;25.35;18.65;;;;;;;9.51;61.45;99508.84;4958583;28;20081;-90
2022/02/16 13:01:41;;;;;;;23.60;18.50;;;;;;;9.62;62.00;99555.91;4958038;28;20392;-90
2022/02/16 13:04:08;;;;;;;25.00;21.15;;;;;;;9.94;62.35;99597.16;4975661;28;20034;-90
2022/02/16 13:06:43;;;;;;;28.17;21.27;;;;;;;10.16;61.75;99617.47;4962469;28;20116;-90
2022/02/16 13:09:09;;;;;;;28.77;22.77;;;;;;;10.67;62.00;99678.59;4976492;28;20502;-90
2022/02/16 13:11:52;;;;;;;83.68;26.98;;;;;;;10.65;61.86;99679.78;4961044;28;20050;-90
2022/02/16 13:14:23;;;;;;;27.20;20.95;;;;;;;10.63;62.36;99684.41;4960368;28;20034;-90
2022/02/16 13:16:58;;;;;;;29.57;23.40;;;;;;;10.04;62.08;99607.50;4958423;28;20070;-90
2022/02/16 13:19:44;;;;;;;44.38;24.40;;;;;;;10.08;62.25;99600.88;4959621;28;20469;-91
2022/02/16 13:22:11;;;;;;;30.33;22.77;;;;;;;10.63;62.47;99666.75;4964037;28;20031;-92
2022/02/16 13:24:37;;;;;;;32.53;24.30;;;;;;;10.41;62.90;99623.50;4963902;28;20034;-89
2022/02/16 13:27:06;;;;;;;31.02;21.98;;;;;;;10.63;62.38;99658.81;4973080;28;20117;-89
2022/02/16 13:29:32;;;;;;;28.55;22.42;;;;;;;10.62;62.76;99661.63;4974465;28;20496;-89
2022/02/16 13:31:58;;;;;;;32.15;24.55;;;;;;;10.26;62.74;99609.38;4969439;28;20054;-86
2022/02/16 13:34:24;;;;;;;27.10;21.02;;;;;;;10.41;62.71;99622.66;4986896;28;20026;-90
2022/02/16 13:36:49;;;;;;;32.88;24.17;;;;;;;10.63;63.08;99655.34;4981500;28;20547;-90
2022/02/16 13:39:16;;;;;;;30.02;23.92;;;;;;;10.54;62.68;99659.06;4987393;28;20058;-90
2022/02/16 13:41:51;;;;;;;34.85;25.92;;;;;;;10.54;63.46;99651.94;4978783;28;20035;-88
2022/02/16 13:44:30;;;;;;;58.95;29.45;;;;;;;10.47;63.16;99648.38;4960586;28;20153;-86
2022/02/16 13:46:58;;;;;;;34.20;26.15;;;;;;;10.12;63.30;99605.63;4979152;28;20474;-88
2022/02/16 13:49:26;;;;;;;109.88;34.30;;;;;;;10.30;63.31;99641.50;4975304;28;20034;-88
2022/02/16 13:52:07;;;;;;;41.33;27.20;;;;;;;10.37;63.32;99634.53;4975889;28;20022;-88
2022/02/16 13:54:39;;;;;;;44.63;28.55;;;;;;;10.26;63.16;99614.66;4982299;28;20046;-90
2022/02/16 13:57:09;;;;;;;36.88;28.27;;;;;;;10.49;63.31;99641.09;4964585;28;20046;-90
2022/02/16 14:00:00;;;;;;;48.75;27.90;;;;;;;9.81;63.30;99558.16;4964852;28;20764;-90
2022/02/16 14:02:31;;;;;;;93.82;34.83;;;;;;;10.50;63.45;99645.38;4980449;28;20041;-90
2022/02/16 14:05:05;;;;;;;51.05;27.20;;;;;;;10.23;63.41;99603.63;4963807;28;20030;-90
2022/02/16 14:07:32;;;;;;;37.35;26.15;;;;;;;10.17;63.44;99592.75;4957563;28;20030;-91
2022/02/16 14:09:58;;;;;;;33.72;24.95;;;;;;;10.08;63.67;99579.78;4972758;28;20034;-89
2022/02/16 14:12:25;;;;;;;33.22;25.27;;;;;;;10.31;63.55;99616.75;4991938;28;20396;-89
2022/02/16 14:14:50;;;;;;;33.92;26.52;;;;;;;10.41;63.73;99639.34;4992173;28;20487;-89
2022/02/16 14:17:16;;;;;;;33.38;25.13;;;;;;;10.23;63.69;99614.19;4986008;28;20037;-89
2022/02/16 14:19:42;;;;;;;43.13;32.58;;;;;;;10.33;63.61;99635.88;4984520;28;20076;-90
2022/02/16 14:22:09;;;;;;;38.25;27.90;;;;;;;10.12;63.97;99594.25;4970965;28;20042;-89
2022/02/16 14:24:37;;;;;;;40.95;28.90;;;;;;;10.27;63.97;99626.84;4960021;28;20150;-90
2022/02/16 14:27:10;;;;;;;49.80;37.42;;;;;;;10.27;64.24;99621.56;4971775;28;20030;-90
2022/02/16 14:29:37;;;;;;;37.75;26.58;;;;;;;10.14;64.30;99606.28;4965162;28;20113;-91
2022/02/16 14:32:04;;;;;;;37.67;27.95;;;;;;;9.74;63.97;99525.56;4966988;28;20026;-91
2022/02/16 14:34:30;;;;;;;39.50;28.42;;;;;;;10.33;64.35;99618.22;4962496;28;20030;-91
2022/02/16 14:36:56;;;;;;;37.97;28.58;;;;;;;10.35;64.46;99620.69;4954847;28;20038;-91
2022/02/16 14:39:21;;;;;;;38.47;30.02;;;;;;;9.46;64.61;99498.00;4972370;28;20030;-91
2022/02/16 14:41:47;;;;;;;167.18;45.90;;;;;;;10.29;64.40;99605.56;4962879;28;20105;-89
2022/02/16 14:44:13;;;;;;;67.65;34.85;;;;;;;10.22;64.30;99583.50;4958819;28;20030;-91
2022/02/16 14:46:40;;;;;;;47.83;34.30;;;;;;;9.82;64.19;99527.34;4975224;28;20030;-90
2022/02/16 14:49:06;;;;;;;57.63;31.85;;;;;;;9.45;64.35;99468.19;4967352;28;20125;-90
2022/02/16 14:51:33;;;;;;;41.05;30.13;;;;;;;10.17;64.30;99590.09;4975224;28;20109;-93
2022/02/16 14:54:00;;;;;;;44.35;31.95;;;;;;;10.23;64.81;99580.69;4981719;28;20093;-90
2022/02/16 14:56:26;;;;;;;66.88;36.95;;;;;;;9.91;63.82;99538.66;4960933;28;20030;-90
2022/02/16 14:58:51;;;;;;;120.97;44.88;;;;;;;10.32;64.11;99606.03;4980946;28;20042;-91
2022/02/16 15:01:18;;;;;;;38.25;28.35;;;;;;;9.14;64.04;99412.03;4955319;28;20031;-92
2022/02/16 15:03:44;;;;;;;37.60;28.38;;;;;;;10.33;63.98;99596.31;4974951;28;20026;-92
2022/02/16 15:06:10;;;;;;;43.20;28.73;;;;;;;10.30;64.10;99592.19;4958845;28;20034;-91
2022/02/16 15:08:35;;;;;;;44.03;32.40;;;;;;;9.81;64.30;99521.25;4975364;28;20043;-93
2022/02/16 15:11:01;;;;;;;41.47;32.03;;;;;;;9.77;64.75;99513.84;4968233;28;20019;-94
2022/02/16 15:13:27;;;;;;;54.40;39.78;;;;;;;10.19;64.79;99593.38;4955930;28;20023;-93
2022/02/16 15:15:54;;;;;;;51.80;40.78;;;;;;;10.16;64.53;99591.09;4981641;28;20523;-92
2022/02/16 15:18:21;;;;;;;50.70;39.85;;;;;;;10.01;64.53;99576.19;4970505;28;20033;-94
2022/02/16 15:20:46;;;;;;;120.93;50.00;;;;;;;9.87;64.54;99532.91;4974274;28;20034;-93
2022/02/16 15:23:12;;;;;;;62.72;41.47;;;;;;;9.79;64.55;99539.06;4968954;28;20030;-94
2022/02/16 15:25:38;;;;;;;64.47;37.90;;;;;;;9.24;64.27;99465.34;4974444;28;20026;-92
2022/02/16 15:28:05;;;;;;;51.35;35.75;;;;;;;8.32;64.40;99331.69;4972269;28;20031;-94
2022/02/16 15:30:31;;;;;;;48.47;35.58;;;;;;;9.06;64.11;99422.59;4978732;28;20034;-92
2022/02/16 15:32:57;;;;;;;46.78;33.90;;;;;;;9.72;64.01;99558.38;4967491;28;20031;-93
2022/02/16 15:35:22;;;;;;;346.48;81.00;;;;;;;9.75;64.60;99582.56;4967475;28;20027;-92
2022/02/16 15:37:48;;;;;;;154.00;53.10;;;;;;;9.08;64.53;99463.59;4972220;28;20037;-91
2022/02/16 15:40:13;;;;;;;463.27;91.93;;;;;;;8.27;65.30;99353.22;4982080;28;20048;-92
2022/02/16 15:42:39;;;;;;;265.95;69.60;;;;;;;8.45;65.47;99372.28;4978952;28;20045;-92
2022/02/16 15:45:05;;;;;;;161.60;52.35;;;;;;;8.99;64.88;99471.69;4964488;28;20034;-92
2022/02/16 15:47:31;;;;;;;90.82;45.33;;;;;;;9.37;65.35;99533.28;4967898;28;20129;-92
2022/02/16 15:49:56;;;;;;;72.13;46.55;;;;;;;9.27;65.80;99530.03;4958828;28;20469;-91
2022/02/16 15:52:22;;;;;;;79.75;54.92;;;;;;;8.98;65.84;99496.38;4963911;28;20093;-92
2022/02/16 15:54:47;;;;;;;72.85;51.90;;;;;;;9.14;65.90;99514.75;4961460;28;20033;-92
2022/02/16 15:57:14;;;;;;;74.20;54.80;;;;;;;9.33;66.03;99547.78;4962916;28;20130;-91
2022/02/16 15:59:39;;;;;;;75.93;57.95;;;;;;;9.10;65.94;99524.00;4975077;28;20030;-92
2022/02/16 16:02:05;;;;;;;77.95;58.90;;;;;;;8.84;65.96;99484.69;4986064;28;20033;-92
2022/02/16 16:04:31;;;;;;;82.38;62.22;;;;;;;9.47;66.42;99590.06;4971478;28;20125;-90
2022/02/16 16:06:58;;;;;;;83.95;61.83;;;;;;;9.52;66.79;99576.38;4966891;28;20026;-93
2022/02/16 16:09:24;;;;;;;101.20;75.55;;;;;;;8.42;66.81;99403.38;4971376;28;20101;-91
2022/02/16 16:11:50;;;;;;;112.45;86.95;;;;;;;9.28;67.13;99545.66;4992909;28;20038;-91
2022/02/16 16:14:16;;;;;;;122.22;90.57;;;;;;;9.19;67.48;99512.44;4995839;28;20488;-91
2022/02/16 16:16:43;;;;;;;103.20;79.97;;;;;;;8.71;67.21;99431.75;4961826;28;20034;-91
2022/02/16 16:19:10;;;;;;;92.63;71.38;;;;;;;9.18;67.55;99543.22;4968034;28;20019;-91
2022/02/16 16:21:36;;;;;;;98.78;71.57;;;;;;;8.87;67.50;99482.53;4972395;28;20023;-91
2022/02/16 16:24:03;;;;;;;97.50;74.90;;;;;;;9.02;67.63;99500.31;4978393;28;20022;-92
2022/02/16 16:26:29;;;;;;;94.05;72.63;;;;;;;9.47;67.84;99578.72;4973918;28;20031;-91
2022/02/16 16:28:54;;;;;;;97.28;74.50;;;;;;;9.37;68.00;99552.56;4973624;28;20107;-92
2022/02/16 16:31:20;;;;;;;93.35;69.50;;;;;;;9.03;67.73;99515.94;4976646;28;20041;-91
2022/02/16 16:33:45;;;;;;;84.25;67.97;;;;;;;9.40;68.29;99589.09;4977907;28;20030;-91
2022/02/16 16:36:11;;;;;;;85.30;64.32;;;;;;;9.42;67.86;99584.50;4977729;28;20392;-91
2022/02/16 16:38:36;;;;;;;77.50;57.63;;;;;;;8.53;67.92;99461.72;4977911;28;20042;-91
2022/02/16 16:41:03;;;;;;;78.22;57.63;;;;;;;8.60;68.01;99459.25;4962732;28;20031;-91
2022/02/16 16:43:29;;;;;;;82.13;60.60;;;;;;;8.83;67.73;99480.41;4958517;28;20085;-91
2022/02/16 16:45:54;;;;;;;79.03;57.83;;;;;;;9.19;67.87;99546.69;4958752;28;20031;-91
2022/02/16 16:48:20;;;;;;;100.40;72.88;;;;;;;8.79;67.87;99500.19;4958595;28;20069;-90
2022/02/16 16:50:50;;;;;;;95.80;68.07;;;;;;;8.31;67.52;99438.72;4958573;28;20046;-91
2022/02/16 16:53:19;;;;;;;110.43;78.70;;;;;;;8.63;67.78;99498.38;4958337;28;20051;-92
2022/02/16 16:55:45;;;;;;;99.15;71.32;;;;;;;7.73;67.69;99352.94;4960044;28;20018;-91
2022/02/16 16:58:10;;;;;;;128.07;94.70;;;;;;;9.12;68.26;99567.59;4979254;28;20034;-91
2022/02/16 17:00:36;;;;;;;139.60;103.13;;;;;;;8.86;68.24;99509.03;4965104;28;20030;-92
2022/02/16 17:03:01;;;;;;;141.98;102.63;;;;;;;9.35;68.07;99591.44;4958297;28;20420;-93
2022/02/16 17:05:28;;;;;;;142.95;99.93;;;;;;;8.16;67.68;99414.03;4973343;28;20031;-92
2022/02/16 17:07:54;;;;;;;182.88;121.15;;;;;;;9.33;68.04;99590.78;4975900;28;20108;-90
2022/02/16 17:10:20;;;;;;;192.48;134.98;;;;;;;9.06;68.07;99549.84;4976844;28;20022;-91
2022/02/16 17:12:46;;;;;;;191.90;128.55;;;;;;;9.31;68.06;99586.66;4977124;28;20030;-91
2022/02/16 17:15:12;;;;;;;212.23;141.55;;;;;;;9.14;68.27;99578.78;4976839;28;20038;-91
2022/02/16 17:17:38;;;;;;;221.15;149.13;;;;;;;8.37;68.13;99459.13;4976842;28;20113;-91
2022/02/16 17:20:05;;;;;;;228.38;151.43;;;;;;;8.46;68.32;99481.78;4976969;28;20149;-91
2022/02/16 17:22:31;;;;;;;181.80;128.48;;;;;;;9.23;68.47;99598.03;4977224;28;20392;-93
2022/02/16 17:24:56;;;;;;;178.07;122.32;;;;;;;8.40;68.07;99468.50;4976649;28;20117;-93
2022/02/16 17:27:21;;;;;;;175.60;123.38;;;;;;;8.64;68.20;99510.56;4976305;28;20023;-92
2022/02/16 17:29:47;;;;;;;182.93;132.23;;;;;;;7.65;67.96;99371.31;4976763;28;20035;-93
2022/02/16 17:32:14;;;;;;;170.63;123.80;;;;;;;8.90;68.26;99579.63;4977398;28;20027;-93
2022/02/16 17:34:40;;;;;;;191.05;135.13;;;;;;;6.96;68.13;99259.63;4976852;28;20026;-90
2022/02/16 17:37:05;;;;;;;201.52;141.30;;;;;;;8.99;68.43;99606.81;4976800;28;20041;-91
2022/02/16 17:39:31;;;;;;;193.90;132.05;;;;;;;9.09;68.31;99593.47;4976463;28;20121;-93
2022/02/16 17:41:57;;;;;;;224.50;154.68;;;;;;;9.09;68.25;99601.38;4975780;28;20069;-93
2022/02/16 17:47:06;;;;;;;144.60;106.05;;;;;;;8.74;68.18;99553.31;4994213;28;20036;-91
2022/02/16 17:49:32;;;;;;;146.20;111.10;;;;;;;7.69;68.26;99387.59;4976485;28;20026;-93
2022/02/16 17:51:57;;;;;;;144.90;110.22;;;;;;;9.03;68.01;99602.84;4976307;28;20038;-93
2022/02/16 17:54:23;;;;;;;176.98;130.23;;;;;;;8.70;68.11;99578.34;4993616;28;20037;-91
2022/02/16 17:56:49;;;;;;;157.77;118.07;;;;;;;9.01;67.87;99640.88;4976057;28;20035;-93
2022/02/16 17:59:15;;;;;;;145.73;108.70;;;;;;;8.45;67.87;99542.47;4976209;28;20060;-91
2022/02/16 18:01:40;;;;;;;135.23;98.43;;;;;;;8.99;68.13;99606.81;4993618;28;20026;-93